Time;durP1;ratioP1;P1;durP2;ratioP2;P2;SDS_P1;SDS_P2;PMS_P1;PMS_P2;Temp;Humidity;BMP_temperature;BMP_pressure;BME280_temperature;BME280_humidity;BME280_pressure;Samples;Min_cycle;Max_cycle;Signal;HPM_P1;HPM_P2
2022/08/19 00:02:12;;;;;;;8.77;7.80;;;16.00;99.90;;;;;;7317888;32;20096;-65
2022/08/19 00:06:15;;;;;;;9.13;7.97;;;16.00;99.90;;;;;;7315295;32;20799;-65
2022/08/19 00:10:21;;;;;;;9.30;8.25;;;16.00;99.90;;;;;;7310040;32;20124;-65
2022/08/19 00:14:24;;;;;;;9.75;7.82;;;15.90;99.90;;;;;;7317272;32;20173;-65
2022/08/19 00:18:27;;;;;;;10.05;7.47;;;15.90;99.90;;;;;;7308187;32;20527;-65
2022/08/19 00:22:28;;;;;;;8.85;7.90;;;15.90;99.90;;;;;;7328213;32;20225;-65
2022/08/19 00:26:30;;;;;;;11.55;8.15;;;15.90;99.90;;;;;;7317199;32;20107;-65
2022/08/19 00:30:32;;;;;;;10.25;8.52;;;15.90;99.90;;;;;;7315684;32;20115;-65
2022/08/19 00:34:34;;;;;;;10.38;8.43;;;15.80;99.90;;;;;;7309625;32;20117;-65
2022/08/19 00:38:39;;;;;;;8.80;7.78;;;15.80;99.90;;;;;;7322513;32;20563;-64
2022/08/19 00:42:41;;;;;;;8.85;7.85;;;15.70;99.90;;;;;;7324567;32;20156;-65
2022/08/19 00:46:45;;;;;;;12.00;7.50;;;15.70;99.90;;;;;;7318401;32;20103;-65
2022/08/19 00:50:59;;;;;;;14.30;7.80;;;15.70;99.90;;;;;;7300332;32;20432;-65
2022/08/19 00:55:01;;;;;;;12.55;7.47;;;15.60;99.90;;;;;;7321013;32;20119;-65
2022/08/19 00:59:08;;;;;;;7.97;7.28;;;15.60;99.90;;;;;;7312767;32;20159;-65
2022/08/19 01:03:12;;;;;;;7.93;7.12;;;15.60;99.90;;;;;;7318648;32;20112;-64
2022/08/19 01:07:14;;;;;;;9.90;8.30;;;15.50;99.90;;;;;;7321722;32;20259;-65
2022/08/19 01:11:21;;;;;;;10.38;7.68;;;15.50;99.90;;;;;;7320785;32;20178;-64
2022/08/19 01:15:30;;;;;;;7.80;7.10;;;15.40;99.90;;;;;;7317970;32;20135;-64
2022/08/19 01:19:39;;;;;;;14.70;7.85;;;15.40;99.90;;;;;;7317163;32;20221;-65
2022/08/19 01:23:45;;;;;;;9.73;7.03;;;15.40;99.90;;;;;;7315141;32;20689;-65
2022/08/19 01:27:49;;;;;;;11.50;7.62;;;15.40;99.90;;;;;;7312225;32;20250;-65
2022/08/19 01:32:14;;;;;;;8.07;7.30;;;15.30;99.90;;;;;;7308663;32;20264;-65
2022/08/19 01:36:45;;;;;;;7.97;7.32;;;15.30;99.90;;;;;;7313648;32;20252;-65
2022/08/19 01:40:47;;;;;;;10.77;7.37;;;15.20;99.90;;;;;;7312614;32;21190;-64
2022/08/19 01:44:48;;;;;;;8.32;7.53;;;15.20;99.90;;;;;;7311193;32;20544;-65
2022/08/19 01:48:50;;;;;;;8.18;7.10;;;15.10;99.90;;;;;;7314421;32;20171;-65
2022/08/19 01:53:12;;;;;;;7.90;7.18;;;15.10;99.90;;;;;;7311593;32;20103;-65
2022/08/19 01:57:16;;;;;;;9.10;7.30;;;15.10;99.90;;;;;;7320510;32;20100;-65
2022/08/19 02:01:17;;;;;;;9.02;7.90;;;15.00;99.90;;;;;;7318515;32;20122;-65
2022/08/19 02:05:21;;;;;;;10.70;7.55;;;15.00;99.90;;;;;;7314491;32;20092;-64
2022/08/19 02:09:22;;;;;;;9.77;7.80;;;15.00;99.90;;;;;;7317348;32;20174;-64
2022/08/19 02:13:25;;;;;;;9.38;7.12;;;14.90;99.90;;;;;;7307983;32;20260;-65
2022/08/19 02:17:28;;;;;;;12.77;7.72;;;14.90;99.90;;;;;;7311792;32;20278;-65
2022/08/19 02:21:30;;;;;;;11.65;7.57;;;14.90;99.90;;;;;;7299417;32;20181;-62
2022/08/19 02:25:32;;;;;;;11.52;8.45;;;14.90;99.90;;;;;;7315043;32;20202;-64
2022/08/19 02:29:34;;;;;;;8.77;7.87;;;14.90;99.90;;;;;;7320639;32;20119;-64
2022/08/19 02:33:36;;;;;;;9.60;8.38;;;14.80;99.90;;;;;;7314955;32;20131;-64
2022/08/19 02:41:59;;;;;;;12.02;7.57;;;14.80;99.90;;;;;;7312129;32;20236;-65
2022/08/19 02:46:02;;;;;;;8.88;7.50;;;14.80;99.90;;;;;;7318107;32;20149;-64
2022/08/19 02:50:05;;;;;;;9.20;7.82;;;14.80;99.90;;;;;;7299110;32;20302;-63
2022/08/19 02:54:08;;;;;;;15.93;8.77;;;14.70;99.90;;;;;;7301158;32;20198;-64
2022/08/19 02:58:10;;;;;;;10.82;8.40;;;14.70;99.90;;;;;;7312463;32;20129;-65
2022/08/19 03:02:12;;;;;;;10.95;8.05;;;14.70;99.90;;;;;;7317585;32;20176;-65
2022/08/19 03:06:15;;;;;;;9.82;8.18;;;14.70;99.90;;;;;;7316470;32;20540;-65
2022/08/19 03:10:17;;;;;;;11.45;7.80;;;14.70;99.90;;;;;;7309088;32;20126;-64
2022/08/19 03:14:19;;;;;;;8.23;7.43;;;14.70;99.90;;;;;;7297328;32;20267;-63
2022/08/19 03:18:21;;;;;;;11.20;8.15;;;14.60;99.90;;;;;;7309734;32;20157;-65
2022/08/19 03:22:25;;;;;;;12.37;8.77;;;14.60;99.90;;;;;;7315797;32;20132;-64
2022/08/19 03:26:27;;;;;;;12.05;8.75;;;14.60;99.90;;;;;;7310590;32;20526;-62
2022/08/19 03:30:29;;;;;;;9.30;8.32;;;14.70;99.90;;;;;;7310724;32;20183;-64
2022/08/19 03:34:33;;;;;;;12.07;8.55;;;14.60;99.90;;;;;;7312348;32;21332;-64
2022/08/19 03:38:44;;;;;;;10.40;9.02;;;14.60;99.90;;;;;;7317207;32;20394;-65
2022/08/19 03:42:46;;;;;;;10.75;8.68;;;14.60;99.90;;;;;;7308469;32;21050;-64
2022/08/19 03:46:59;;;;;;;13.73;8.52;;;14.50;99.90;;;;;;7307860;32;20088;-64
2022/08/19 03:51:01;;;;;;;10.57;8.90;;;14.60;99.90;;;;;;7312360;32;20120;-64
2022/08/19 03:55:04;;;;;;;11.40;8.85;;;14.50;99.90;;;;;;7314931;32;20874;-65
2022/08/19 03:59:09;;;;;;;10.52;8.82;;;14.50;99.90;;;;;;7322635;32;20584;-64
2022/08/19 04:03:18;;;;;;;8.68;7.87;;;14.50;99.90;;;;;;7310253;32;20172;-64
2022/08/19 04:07:27;;;;;;;9.43;8.45;;;14.50;99.90;;;;;;7319785;32;20108;-64
2022/08/19 04:11:53;;;;;;;11.23;8.13;;;14.50;99.90;;;;;;7323581;32;20122;-64
2022/08/19 04:15:55;;;;;;;8.75;7.85;;;14.50;99.90;;;;;;7320526;32;20192;-64
2022/08/19 04:19:57;;;;;;;11.05;8.55;;;14.50;99.90;;;;;;7326162;32;20197;-65
2022/08/19 04:23:59;;;;;;;10.00;7.65;;;14.50;99.90;;;;;;7318861;32;20132;-63
2022/08/19 04:28:01;;;;;;;13.18;8.15;;;14.60;99.90;;;;;;7327435;32;20183;-64
2022/08/19 04:32:03;;;;;;;8.80;7.90;;;14.60;99.90;;;;;;7324658;32;20104;-64
2022/08/19 04:36:20;;;;;;;10.07;8.70;;;14.50;99.90;;;;;;7322786;32;20198;-65
2022/08/19 04:44:42;;;;;;;10.90;9.40;;;14.50;99.90;;;;;;7314850;32;20606;-64
2022/08/19 04:48:47;;;;;;;12.43;8.20;;;14.50;99.90;;;;;;7314920;32;20113;-63
2022/08/19 04:52:52;;;;;;;9.35;8.43;;;14.50;99.90;;;;;;7310752;32;20142;-63
2022/08/19 04:56:54;;;;;;;14.23;12.05;;;14.50;99.90;;;;;;7316744;32;20171;-63
2022/08/19 05:00:55;;;;;;;12.65;9.60;;;14.50;99.90;;;;;;7316009;32;20211;-63
2022/08/19 05:05:00;;;;;;;11.90;8.65;;;14.50;99.90;;;;;;7312854;32;20104;-61
2022/08/19 05:09:04;;;;;;;13.68;11.52;;;14.50;99.90;;;;;;7308976;32;20499;-63
2022/08/19 05:13:09;;;;;;;11.40;9.70;;;14.60;99.90;;;;;;7319418;32;20203;-63
2022/08/19 05:17:11;;;;;;;9.82;8.70;;;14.60;99.90;;;;;;7309097;32;20505;-63
2022/08/19 05:25:51;;;;;;;12.05;10.88;;;14.70;99.90;;;;;;7318010;32;20335;-63
2022/08/19 05:29:53;;;;;;;17.10;13.65;;;14.80;99.90;;;;;;7312221;32;20131;-63
2022/08/19 05:33:55;;;;;;;17.48;13.32;;;14.90;99.90;;;;;;7314625;32;20183;-64
2022/08/19 05:37:57;;;;;;;13.57;9.40;;;15.00;99.90;;;;;;7308885;32;20227;-59
2022/08/19 05:42:03;;;;;;;14.52;10.13;;;15.10;99.90;;;;;;7303341;32;20150;-61
2022/08/19 05:46:06;;;;;;;12.90;10.95;;;15.20;99.90;;;;;;7311698;32;20195;-61
2022/08/19 05:50:08;;;;;;;12.73;9.50;;;15.30;99.90;;;;;;7317658;32;20108;-58
2022/08/19 05:54:13;;;;;;;17.20;15.40;;;15.50;99.90;;;;;;7314167;32;20306;-59
2022/08/19 05:58:14;;;;;;;12.73;11.23;;;15.60;99.90;;;;;;7305906;32;20233;-64
2022/08/19 06:02:16;;;;;;;17.30;12.27;;;15.90;99.90;;;;;;7305183;32;20182;-65
2022/08/19 06:06:19;;;;;;;33.35;27.75;;;16.20;99.90;;;;;;7314631;32;20787;-65
2022/08/19 06:10:21;;;;;;;41.88;34.47;;;16.50;99.90;;;;;;7306796;32;20788;-65
2022/08/19 06:14:25;;;;;;;41.83;33.67;;;16.80;99.90;;;;;;7314966;32;20177;-65
2022/08/19 06:18:29;;;;;;;51.90;38.35;;;16.90;99.90;;;;;;7298396;32;20091;-66
2022/08/19 06:22:30;;;;;;;63.65;51.88;;;17.10;99.90;;;;;;7314044;32;20126;-65
2022/08/19 06:26:34;;;;;;;65.40;49.63;;;17.30;99.90;;;;;;7316656;32;20303;-66
2022/08/19 06:30:36;;;;;;;56.20;47.40;;;17.40;99.90;;;;;;7299233;32;20244;-65
2022/08/19 06:34:39;;;;;;;59.35;49.97;;;17.40;99.90;;;;;;7310013;32;20179;-66
2022/08/19 06:38:40;;;;;;;73.18;59.83;;;17.60;99.90;;;;;;7312417;32;20100;-65
2022/08/19 06:42:45;;;;;;;70.10;57.53;;;17.60;99.90;;;;;;7308118;32;20211;-65
2022/08/19 06:46:56;;;;;;;67.80;53.87;;;17.70;99.90;;;;;;7298365;32;20270;-65
2022/08/19 06:50:58;;;;;;;73.60;61.28;;;17.70;99.90;;;;;;7317790;32;20123;-65
2022/08/19 06:55:01;;;;;;;71.03;59.05;;;17.70;99.90;;;;;;7314795;32;20332;-65
2022/08/19 06:59:10;;;;;;;73.57;61.33;;;17.80;99.90;;;;;;7315303;32;20173;-65
2022/08/19 07:03:12;;;;;;;76.40;62.40;;;18.00;99.90;;;;;;7314923;32;20222;-65
2022/08/19 07:07:14;;;;;;;70.90;56.58;;;18.20;99.90;;;;;;7312401;32;20111;-65
2022/08/19 07:11:21;;;;;;;67.68;55.90;;;18.30;99.90;;;;;;7312099;32;20122;-65
2022/08/19 07:15:24;;;;;;;64.37;53.00;;;18.60;99.90;;;;;;7315354;32;20119;-64
2022/08/19 07:19:28;;;;;;;62.35;52.67;;;18.60;99.90;;;;;;7314934;32;20230;-65
2022/08/19 07:23:30;;;;;;;58.33;49.53;;;18.90;99.90;;;;;;7306280;32;20193;-65
2022/08/19 07:27:33;;;;;;;59.50;50.10;;;18.90;99.90;;;;;;7312044;32;20162;-65
2022/08/19 07:31:36;;;;;;;60.25;50.72;;;18.90;99.90;;;;;;7316810;32;20148;-64
2022/08/19 07:35:45;;;;;;;52.47;45.35;;;18.90;99.90;;;;;;7307207;32;20103;-64
2022/08/19 07:39:47;;;;;;;48.90;42.97;;;19.00;99.90;;;;;;7312769;32;20272;-65
2022/08/19 07:43:50;;;;;;;53.47;45.97;;;19.10;99.90;;;;;;7313668;32;20145;-65
2022/08/19 07:47:52;;;;;;;50.10;42.58;;;19.30;99.90;;;;;;7311281;32;20197;-65
2022/08/19 07:52:04;;;;;;;45.58;38.15;;;19.40;99.90;;;;;;7314937;32;20361;-65
2022/08/19 07:56:07;;;;;;;45.05;37.25;;;19.70;99.90;;;;;;7312177;32;20210;-65
2022/08/19 08:00:09;;;;;;;41.22;34.95;;;19.90;99.90;;;;;;7299130;32;20149;-66
2022/08/19 08:12:55;;;;;;;29.65;26.50;;;20.90;99.90;;;;;;7316689;32;20247;-66
2022/08/19 08:17:12;;;;;;;;;;;21.00;99.90;;;;;;7305814;32;20740;-67
2022/08/19 08:21:14;;;;;;;29.85;26.30;;;21.30;99.90;;;;;;7310224;32;20186;-65
2022/08/19 08:25:21;;;;;;;34.03;27.95;;;21.40;99.90;;;;;;7307452;32;20210;-65
2022/08/19 08:29:23;;;;;;;32.95;27.55;;;21.70;99.90;;;;;;7315807;32;20308;-62
2022/08/19 08:33:28;;;;;;;29.27;24.33;;;21.90;99.90;;;;;;7314789;32;20593;-65
2022/08/19 08:37:36;;;;;;;31.33;25.15;;;22.10;99.90;;;;;;7313295;32;20253;-65
2022/08/19 08:41:52;;;;;;;34.10;26.80;;;22.20;99.90;;;;;;7317906;32;20115;-65
2022/08/19 08:46:09;;;;;;;32.80;25.52;;;22.00;99.90;;;;;;7321481;32;20144;-66
2022/08/19 08:50:25;;;;;;;40.70;30.65;;;22.00;99.90;;;;;;7312722;32;20218;-66
2022/08/19 08:54:33;;;;;;;35.00;29.12;;;22.10;99.90;;;;;;7307488;32;20247;-67
2022/08/19 08:59:01;;;;;;;32.20;27.60;;;22.70;99.90;;;;;;7322208;32;20202;-66
2022/08/19 09:03:09;;;;;;;38.63;34.30;;;22.90;99.90;;;;;;7314863;32;20195;-65
2022/08/19 09:07:37;;;;;;;40.55;33.28;;;23.20;99.90;;;;;;7302486;32;20186;-66
2022/08/19 09:12:09;;;;;;;36.20;30.75;;;23.10;99.90;;;;;;7313188;32;20174;-66
2022/08/19 09:16:17;;;;;;;34.45;30.75;;;23.80;99.90;;;;;;7320124;32;20209;-64
2022/08/19 09:20:23;;;;;;;32.35;28.87;;;24.10;99.90;;;;;;7318529;32;20132;-65
2022/08/19 09:24:27;;;;;;;30.15;26.83;;;24.70;99.90;;;;;;7318029;32;20320;-66
2022/08/19 09:28:32;;;;;;;30.65;26.58;;;24.80;99.90;;;;;;7315547;32;20161;-66
2022/08/19 09:32:34;;;;;;;22.67;20.37;;;25.00;99.90;;;;;;7314991;32;20186;-66
2022/08/19 09:36:38;;;;;;;23.50;18.12;;;25.00;99.90;;;;;;7312646;32;20190;-66
2022/08/19 09:40:54;;;;;;;20.88;18.67;;;25.40;99.90;;;;;;7318561;32;20246;-65
2022/08/19 09:44:56;;;;;;;24.80;22.10;;;24.90;99.90;;;;;;7317310;32;20194;-65
2022/08/19 09:49:09;;;;;;;23.20;20.30;;;25.10;99.90;;;;;;7317539;32;20165;-66
2022/08/19 09:53:22;;;;;;;24.08;20.45;;;25.40;99.90;;;;;;7318738;32;20336;-65
2022/08/19 09:57:26;;;;;;;25.12;20.25;;;25.80;99.90;;;;;;7311654;32;20589;-66
2022/08/19 10:01:30;;;;;;;22.67;18.17;;;25.70;99.90;;;;;;7315224;32;20587;-65
2022/08/19 10:05:50;;;;;;;24.95;22.02;;;25.70;99.90;;;;;;7320658;32;20295;-65
2022/08/19 10:10:12;;;;;;;23.50;19.73;;;25.80;99.90;;;;;;7313911;32;20505;-65
2022/08/19 10:14:15;;;;;;;24.77;20.17;;;25.90;99.90;;;;;;7317861;32;20274;-64
2022/08/19 10:18:17;;;;;;;28.55;23.62;;;26.30;99.90;;;;;;7318069;32;20271;-65
2022/08/19 10:22:20;;;;;;;28.30;24.08;;;26.50;99.90;;;;;;7304640;32;20436;-66
2022/08/19 10:26:27;;;;;;;25.25;21.52;;;26.90;99.90;;;;;;7309172;32;20267;-66
2022/08/19 10:30:29;;;;;;;22.77;20.27;;;27.30;99.90;;;;;;7315286;32;20132;-66
2022/08/19 10:34:31;;;;;;;20.85;17.60;;;27.10;99.90;;;;;;7317974;32;20222;-66
2022/08/19 10:38:33;;;;;;;19.75;16.98;;;26.50;99.90;;;;;;7317580;32;20195;-65
2022/08/19 10:42:35;;;;;;;22.90;20.45;;;25.80;99.90;;;;;;7317786;32;20172;-65
2022/08/19 10:46:41;;;;;;;21.73;19.52;;;25.00;99.90;;;;;;7318420;32;20312;-65
2022/08/19 10:59:30;;;;;;;21.35;17.83;;;26.00;99.90;;;;;;7317123;32;20126;-64
2022/08/19 11:03:37;;;;;;;16.60;13.85;;;25.80;99.90;;;;;;7320238;32;20111;-64
2022/08/19 11:07:40;;;;;;;16.55;14.80;;;25.30;99.90;;;;;;7318392;32;20180;-62
2022/08/19 11:11:42;;;;;;;16.23;11.77;;;24.90;99.90;;;;;;7313665;32;20265;-58
2022/08/19 11:15:47;;;;;;;14.38;11.43;;;24.80;99.90;;;;;;7317705;32;20176;-60
2022/08/19 11:19:49;;;;;;;11.77;10.25;;;24.50;99.90;;;;;;7307473;32;20155;-61
2022/08/19 11:23:55;;;;;;;12.57;9.85;;;24.60;99.90;;;;;;7305669;32;20177;-61
2022/08/19 11:27:56;;;;;;;14.43;10.90;;;25.10;99.90;;;;;;7319798;32;20288;-59
2022/08/19 11:32:01;;;;;;;12.30;9.32;;;25.50;99.90;;;;;;7316987;32;20120;-60
2022/08/19 11:36:03;;;;;;;12.15;9.30;;;26.10;99.90;;;;;;7315186;32;20265;-60
2022/08/19 11:40:07;;;;;;;10.32;7.97;;;26.40;99.90;;;;;;7311453;32;20593;-60
2022/08/19 11:44:09;;;;;;;7.78;6.93;;;26.60;99.90;;;;;;7296139;32;20305;-62
2022/08/19 11:48:11;;;;;;;8.50;7.70;;;26.40;99.90;;;;;;7309167;32;20213;-63
2022/08/19 11:52:13;;;;;;;8.13;6.97;;;26.20;99.90;;;;;;7311424;32;20275;-61
2022/08/19 11:56:14;;;;;;;9.38;7.53;;;26.50;99.90;;;;;;7294352;32;20205;-62
2022/08/19 12:00:16;;;;;;;7.53;6.18;;;26.90;99.90;;;;;;7313104;32;20760;-62
2022/08/19 12:04:18;;;;;;;9.57;6.72;;;27.00;99.90;;;;;;7316915;32;20891;-62
2022/08/19 12:08:21;;;;;;;7.30;6.30;;;26.80;99.90;;;;;;7283603;32;20235;-62
2022/08/19 12:12:24;;;;;;;8.60;7.50;;;26.90;99.90;;;;;;7314705;32;20611;-61
2022/08/19 12:16:28;;;;;;;7.85;6.32;;;26.40;99.90;;;;;;7319862;32;20127;-63
2022/08/19 12:20:45;;;;;;;6.93;6.30;;;26.30;99.90;;;;;;7313510;32;20127;-63
2022/08/19 12:25:06;;;;;;;8.50;6.50;;;26.20;99.90;;;;;;7319312;32;20578;-63
2022/08/19 12:29:08;;;;;;;10.23;6.55;;;26.40;99.90;;;;;;7314996;32;20320;-62
2022/08/19 12:33:09;;;;;;;9.68;6.95;;;26.60;99.90;;;;;;7319324;32;20135;-63
2022/08/19 12:37:12;;;;;;;8.02;6.05;;;27.00;99.90;;;;;;7318130;32;20180;-66
2022/08/19 12:41:18;;;;;;;10.77;6.35;;;27.30;99.90;;;;;;7315400;32;20169;-65
2022/08/19 12:45:19;;;;;;;6.63;5.93;;;27.60;99.90;;;;;;7316355;32;20567;-65
2022/08/19 12:49:21;;;;;;;7.72;6.78;;;27.80;99.90;;;;;;7310866;32;20398;-65
2022/08/19 12:53:44;;;;;;;11.40;5.75;;;27.90;99.90;;;;;;7303669;32;20225;-63
2022/08/19 12:57:47;;;;;;;9.75;5.62;;;27.90;99.90;;;;;;7299761;32;20560;-67
2022/08/19 13:01:49;;;;;;;8.25;6.10;;;27.70;99.90;;;;;;7314208;32;20230;-65
2022/08/19 13:05:50;;;;;;;6.85;5.82;;;27.60;99.90;;;;;;7314487;32;20131;-66
2022/08/19 13:09:53;;;;;;;6.60;5.12;;;27.20;99.90;;;;;;7314935;32;20123;-68
2022/08/19 13:13:54;;;;;;;8.05;4.93;;;26.50;99.90;;;;;;7303691;32;20276;-67
2022/08/19 13:17:57;;;;;;;9.27;4.53;;;26.60;99.90;;;;;;7321399;32;20253;-68
2022/08/19 13:21:59;;;;;;;8.85;5.50;;;27.00;99.90;;;;;;7314568;32;20197;-67
2022/08/19 13:26:06;;;;;;;11.70;5.80;;;27.40;99.90;;;;;;7319910;32;20289;-67
2022/08/19 13:34:35;;;;;;;7.97;4.95;;;27.30;99.90;;;;;;7316522;32;20485;-66
2022/08/19 13:38:37;;;;;;;4.70;4.15;;;27.40;99.60;;;;;;7313100;32;20111;-67
2022/08/19 13:42:39;;;;;;;8.20;3.95;;;27.80;99.90;;;;;;7318735;32;20210;-67
2022/08/19 13:46:44;;;;;;;5.20;3.22;;;28.20;99.80;;;;;;7315925;32;20126;-66
2022/08/19 13:50:47;;;;;;;8.10;3.50;;;28.10;97.60;;;;;;7320872;32;20127;-66
2022/08/19 13:54:49;;;;;;;27.48;4.65;;;28.10;96.60;;;;;;7312991;32;20760;-66
2022/08/19 13:58:51;;;;;;;5.18;3.53;;;28.10;95.70;;;;;;7315829;32;20652;-67
2022/08/19 14:02:55;;;;;;;5.20;3.70;;;28.00;95.40;;;;;;7313020;32;20201;-66
2022/08/19 14:06:57;;;;;;;4.75;3.70;;;27.60;95.80;;;;;;7308135;32;20904;-67
2022/08/19 14:10:59;;;;;;;5.80;3.10;;;27.50;95.90;;;;;;7312866;32;20179;-66
2022/08/19 14:15:09;;;;;;;18.87;4.50;;;27.50;96.10;;;;;;7303943;32;20088;-67
2022/08/19 14:19:10;;;;;;;7.72;3.50;;;27.50;96.50;;;;;;7302583;32;20115;-67
2022/08/19 14:23:13;;;;;;;5.85;3.30;;;27.50;96.70;;;;;;7296006;32;20561;-66
2022/08/19 14:27:15;;;;;;;3.87;3.15;;;27.80;95.80;;;;;;7318650;32;20488;-67
2022/08/19 14:31:18;;;;;;;5.30;3.10;;;28.30;95.70;;;;;;7298738;32;20606;-66
2022/08/19 14:35:21;;;;;;;4.72;3.25;;;28.90;92.80;;;;;;7311579;32;20579;-67
2022/08/19 14:39:23;;;;;;;5.55;3.65;;;28.90;92.70;;;;;;7310705;32;20244;-67
2022/08/19 14:43:25;;;;;;;6.00;2.97;;;28.20;93.00;;;;;;7315131;32;20168;-65
2022/08/19 14:47:27;;;;;;;6.68;3.87;;;28.00;94.40;;;;;;7316400;32;20244;-66
2022/08/19 14:51:29;;;;;;;5.30;3.25;;;28.00;94.00;;;;;;7314388;32;20166;-67
2022/08/19 14:55:32;;;;;;;5.60;3.85;;;27.80;94.80;;;;;;7323757;32;20238;-67
2022/08/19 14:59:34;;;;;;;7.50;3.85;;;27.40;96.70;;;;;;7311072;32;20117;-67
2022/08/19 15:03:37;;;;;;;10.27;3.72;;;26.90;97.90;;;;;;7319248;32;20226;-66
2022/08/19 15:07:40;;;;;;;8.80;3.90;;;26.40;98.90;;;;;;7316939;32;20124;-67
2022/08/19 15:11:42;;;;;;;8.80;3.55;;;26.40;99.80;;;;;;7314884;32;20192;-67
2022/08/19 15:15:45;;;;;;;5.72;3.12;;;26.50;99.30;;;;;;7307182;32;20104;-67
2022/08/19 15:19:47;;;;;;;7.97;3.67;;;26.90;99.00;;;;;;7310849;32;20128;-66
2022/08/19 15:23:50;;;;;;;7.20;3.17;;;27.10;97.60;;;;;;7315941;32;20849;-67
2022/08/19 15:27:52;;;;;;;5.47;3.00;;;26.90;95.90;;;;;;7318182;32;20293;-67
2022/08/19 15:31:55;;;;;;;6.32;2.90;;;26.80;95.90;;;;;;7310839;32;20119;-67
2022/08/19 15:35:59;;;;;;;5.25;2.97;;;26.70;96.30;;;;;;7312847;32;20550;-66
2022/08/19 15:40:01;;;;;;;6.40;3.00;;;26.60;96.90;;;;;;7311535;32;20192;-66
2022/08/19 15:44:08;;;;;;;4.43;2.67;;;26.50;96.90;;;;;;7306467;32;20186;-63
2022/08/19 15:48:10;;;;;;;;;;;26.50;97.80;;;;;;7315569;32;20187;-64
2022/08/19 15:52:12;;;;;;;3.87;2.62;;;26.20;97.90;;;;;;7318419;32;20025;-64
2022/08/19 15:56:14;;;;;;;8.00;2.83;;;26.10;97.70;;;;;;7314019;32;20165;-64
2022/08/19 16:09:05;;;;;;;6.25;3.45;;;25.80;97.50;;;;;;7304032;32;20845;-64
2022/08/19 16:13:09;;;;;;;5.93;3.33;;;25.90;97.90;;;;;;7327019;32;20792;-62
2022/08/19 16:17:11;;;;;;;5.78;3.10;;;25.90;96.70;;;;;;7306561;32;20701;-64
2022/08/19 16:21:17;;;;;;;3.45;3.10;;;25.70;97.10;;;;;;7317992;32;20215;-64
2022/08/19 16:25:25;;;;;;;5.93;3.70;;;25.70;97.60;;;;;;7301743;32;20131;-64
2022/08/19 16:29:27;;;;;;;5.53;3.85;;;25.50;97.90;;;;;;7310853;32;20184;-63
2022/08/19 16:33:40;;;;;;;5.85;4.60;;;25.30;99.00;;;;;;7323867;32;20123;-64
2022/08/19 16:37:42;;;;;;;6.65;4.87;;;25.10;98.90;;;;;;7313483;32;20526;-63
2022/08/19 16:41:45;;;;;;;7.53;4.90;;;25.00;98.90;;;;;;7317127;32;20155;-65
2022/08/19 16:45:49;;;;;;;7.35;5.25;;;24.90;99.90;;;;;;7312319;32;20133;-61
2022/08/19 16:49:51;;;;;;;7.68;6.78;;;25.00;99.90;;;;;;7312030;32;20220;-63
2022/08/19 16:53:56;;;;;;;9.85;6.50;;;24.90;99.90;;;;;;7312351;32;20126;-63
2022/08/19 16:58:03;;;;;;;9.27;6.50;;;24.70;99.90;;;;;;7317087;32;20243;-63
2022/08/19 17:02:04;;;;;;;8.00;6.75;;;25.00;99.90;;;;;;7301431;32;20108;-64
2022/08/19 17:06:19;;;;;;;8.02;6.95;;;24.90;99.90;;;;;;7317386;32;20191;-67
2022/08/19 17:10:22;;;;;;;7.50;6.50;;;24.90;99.90;;;;;;7318535;32;20153;-66
2022/08/19 17:14:24;;;;;;;9.18;7.05;;;24.90;99.90;;;;;;7299708;32;20191;-67
2022/08/19 17:18:26;;;;;;;12.13;7.32;;;24.90;99.90;;;;;;7316285;32;20130;-66
2022/08/19 17:22:35;;;;;;;10.37;7.80;;;24.80;99.90;;;;;;7314506;32;20261;-64
2022/08/19 17:26:37;;;;;;;13.57;8.23;;;24.80;99.90;;;;;;7321533;32;20200;-67
2022/08/19 17:30:40;;;;;;;12.35;8.30;;;24.70;99.90;;;;;;7322914;32;20264;-67
2022/08/19 17:34:43;;;;;;;12.65;8.02;;;24.60;99.90;;;;;;7316289;32;20230;-66
2022/08/19 17:38:45;;;;;;;10.32;9.15;;;24.30;99.90;;;;;;7318053;32;20144;-67
2022/08/19 17:42:47;;;;;;;11.18;8.43;;;24.20;99.90;;;;;;7314106;32;20245;-63
2022/08/19 17:46:48;;;;;;;9.60;7.45;;;24.00;99.90;;;;;;7316929;32;20281;-64
2022/08/19 17:50:51;;;;;;;8.60;7.12;;;23.90;99.90;;;;;;7322692;32;20305;-65
2022/08/19 17:54:52;;;;;;;10.95;7.07;;;23.70;99.90;;;;;;7313497;32;20190;-61
2022/08/19 17:58:54;;;;;;;11.90;7.47;;;23.60;99.90;;;;;;7317688;32;20161;-62
2022/08/19 18:03:03;;;;;;;10.65;7.35;;;23.50;99.90;;;;;;7317568;32;20211;-62
2022/08/19 18:07:08;;;;;;;10.27;7.37;;;23.50;99.90;;;;;;7310877;32;20104;-63
2022/08/19 18:11:10;;;;;;;11.65;7.03;;;23.40;99.90;;;;;;7316419;32;22293;-63
2022/08/19 18:15:12;;;;;;;7.25;6.30;;;23.30;99.90;;;;;;7322184;32;20583;-64
2022/08/19 18:19:14;;;;;;;6.47;5.80;;;23.30;99.90;;;;;;7297356;32;20177;-63
2022/08/19 18:23:16;;;;;;;7.57;6.32;;;23.20;99.90;;;;;;7314539;32;21090;-62
2022/08/19 18:27:38;;;;;;;12.00;7.28;;;23.20;99.90;;;;;;7314724;32;20216;-63
2022/08/19 18:31:42;;;;;;;13.43;7.97;;;23.00;99.90;;;;;;7322925;32;20757;-63
2022/08/19 18:35:47;;;;;;;10.60;6.10;;;22.80;99.90;;;;;;7319993;32;20104;-64
2022/08/19 18:52:50;;;;;;;6.47;4.93;;;22.60;99.90;;;;;;7312652;32;20899;-65
2022/08/19 18:56:54;;;;;;;7.37;4.30;;;22.60;99.90;;;;;;7313547;32;20150;-67
2022/08/19 19:00:56;;;;;;;4.70;3.60;;;22.50;99.90;;;;;;7316921;32;20170;-65
2022/08/19 19:04:58;;;;;;;3.95;3.33;;;22.40;99.90;;;;;;7319555;32;20275;-65
2022/08/19 19:09:06;;;;;;;5.87;4.03;;;22.40;99.90;;;;;;7320405;32;20803;-66
2022/08/19 19:13:08;;;;;;;6.87;4.93;;;22.30;99.90;;;;;;7318276;32;20694;-65
2022/08/19 19:17:13;;;;;;;5.25;4.05;;;22.30;99.90;;;;;;7319189;32;20115;-66
2022/08/19 19:21:15;;;;;;;6.10;4.65;;;22.20;99.90;;;;;;7309352;32;20234;-65
2022/08/19 19:25:18;;;;;;;6.82;4.75;;;22.10;99.90;;;;;;7320663;32;20120;-64
2022/08/19 19:29:21;;;;;;;5.62;4.68;;;22.00;99.90;;;;;;7298316;32;20180;-64
2022/08/19 19:33:23;;;;;;;6.35;4.68;;;21.90;99.90;;;;;;7307321;32;20181;-63
2022/08/19 19:37:25;;;;;;;5.20;4.15;;;21.80;99.90;;;;;;7308799;32;20130;-66
2022/08/19 19:41:27;;;;;;;6.68;4.60;;;21.80;99.90;;;;;;7313778;32;20155;-65
2022/08/19 19:45:29;;;;;;;5.50;3.75;;;21.80;99.90;;;;;;7305375;32;20270;-65
2022/08/19 19:49:31;;;;;;;6.62;3.78;;;21.60;99.90;;;;;;7300254;32;20115;-66
2022/08/19 19:53:32;;;;;;;5.93;4.07;;;21.50;99.90;;;;;;7313833;32;20283;-64
2022/08/19 19:57:38;;;;;;;5.30;4.22;;;21.40;99.90;;;;;;7318860;32;20982;-65
2022/08/19 20:01:44;;;;;;;5.55;4.75;;;21.30;99.90;;;;;;7320565;32;20677;-65
2022/08/19 20:05:47;;;;;;;;;;;21.30;99.90;;;;;;7321197;32;20108;-66
2022/08/19 20:09:51;;;;;;;4.60;3.95;;;21.20;99.90;;;;;;7317415;32;20121;-66
2022/08/19 20:14:10;;;;;;;6.45;4.70;;;21.10;99.90;;;;;;7322775;32;20425;-65
2022/08/19 20:18:13;;;;;;;5.53;3.95;;;21.00;99.90;;;;;;7317881;32;20310;-65
2022/08/19 20:22:15;;;;;;;5.68;5.00;;;20.90;99.90;;;;;;7310010;32;20135;-65
2022/08/19 20:26:19;;;;;;;6.97;4.47;;;21.00;99.90;;;;;;7311678;32;20104;-66
2022/08/19 20:30:34;;;;;;;6.12;3.80;;;21.00;99.90;;;;;;7312805;32;20103;-65
2022/08/19 20:34:40;;;;;;;3.40;3.00;;;21.30;99.90;;;;;;7314920;32;20130;-65
2022/08/19 20:38:42;;;;;;;6.95;3.58;;;21.20;99.90;;;;;;7318451;32;20412;-65
2022/08/19 20:42:44;;;;;;;6.62;3.55;;;21.10;99.90;;;;;;7317653;32;20555;-67
2022/08/19 20:46:48;;;;;;;4.70;3.33;;;21.00;99.90;;;;;;7319804;32;20567;-66
2022/08/19 20:50:56;;;;;;;7.00;3.60;;;21.10;99.90;;;;;;7321472;32;20124;-65
2022/08/19 20:55:00;;;;;;;4.25;3.80;;;21.10;99.90;;;;;;7319961;32;20333;-66
2022/08/19 20:59:03;;;;;;;4.72;4.00;;;21.10;99.90;;;;;;7318723;32;20493;-65
2022/08/19 21:03:05;;;;;;;8.07;4.32;;;21.10;99.90;;;;;;7314882;32;20175;-65
2022/08/19 21:07:07;;;;;;;7.22;4.00;;;21.10;99.90;;;;;;7317106;32;20189;-65
2022/08/19 21:11:09;;;;;;;4.07;3.28;;;21.00;99.90;;;;;;7320400;32;20107;-64
2022/08/19 21:15:11;;;;;;;4.22;3.40;;;21.00;99.90;;;;;;7317120;32;20186;-65
2022/08/19 21:19:13;;;;;;;5.00;3.47;;;21.00;99.90;;;;;;7314929;32;20185;-65
2022/08/19 21:23:19;;;;;;;6.25;3.40;;;20.90;99.90;;;;;;7319056;32;20218;-66
2022/08/19 21:27:21;;;;;;;3.35;2.67;;;20.90;99.90;;;;;;7319747;32;20126;-65
2022/08/19 21:31:22;;;;;;;7.12;4.32;;;20.80;99.90;;;;;;7320579;32;20890;-65
2022/08/19 21:35:24;;;;;;;5.07;3.80;;;20.90;99.90;;;;;;7318406;32;20116;-65
2022/08/19 21:39:26;;;;;;;7.85;5.65;;;20.80;99.90;;;;;;7320081;32;20114;-65
2022/08/19 21:43:28;;;;;;;8.00;5.70;;;20.80;99.90;;;;;;7313651;32;20230;-65
2022/08/19 21:47:30;;;;;;;7.62;5.03;;;20.80;99.90;;;;;;7316456;32;20126;-65
2022/08/19 21:51:32;;;;;;;6.32;4.65;;;20.70;99.90;;;;;;7315516;32;20139;-63
2022/08/19 21:55:34;;;;;;;7.15;4.97;;;20.70;99.90;;;;;;7317824;32;20134;-63
2022/08/19 21:59:35;;;;;;;8.43;5.35;;;20.60;99.90;;;;;;7316104;32;20282;-64